createdAt,value
2022-09-26T00:01:11.073Z,62.34
2022-09-26T00:03:45.155Z,62.92
2022-09-26T00:06:18.317Z,63.03
2022-09-26T00:08:51.232Z,63.10
2022-09-26T00:11:25.757Z,63.17
2022-09-26T00:14:00.441Z,63.21
2022-09-26T00:16:33.032Z,63.38
2022-09-26T00:19:06.667Z,63.34
2022-09-26T00:21:39.362Z,63.42
2022-09-26T00:24:11.804Z,63.55
2022-09-26T00:26:44.337Z,63.33
2022-09-26T00:29:17.398Z,62.64
2022-09-26T00:31:49.679Z,63.26
2022-09-26T00:34:22.110Z,63.62
2022-09-26T00:36:54.778Z,63.62
2022-09-26T00:39:27.048Z,63.75
2022-09-26T00:41:59.296Z,64.48
2022-09-26T00:44:45.235Z,64.65
2022-09-26T00:47:26.811Z,64.59
2022-09-26T00:50:02.532Z,64.52
2022-09-26T00:52:38.691Z,65.25
2022-09-26T00:55:18.043Z,64.72
2022-09-26T00:57:54.814Z,64.82
2022-09-26T01:00:27.809Z,64.98
2022-09-26T01:03:00.911Z,64.76
2022-09-26T01:05:37.083Z,64.70
2022-09-26T01:08:10.818Z,64.42
2022-09-26T01:10:45.418Z,64.69
2022-09-26T01:13:17.770Z,64.14
2022-09-26T01:15:50.773Z,64.20
2022-09-26T01:18:23.205Z,63.54
2022-09-26T01:21:06.190Z,63.29
2022-09-26T01:24:15.983Z,62.62
2022-09-26T01:27:13.753Z,62.72
2022-09-26T01:30:11.776Z,62.65
2022-09-26T01:33:27.184Z,62.76
2022-09-26T01:36:28.783Z,62.07
2022-09-26T01:39:13.594Z,61.31
2022-09-26T01:41:56.150Z,59.95
2022-09-26T01:44:34.473Z,61.18
2022-09-26T01:47:14.840Z,58.25
2022-09-26T01:49:54.451Z,58.55
2022-09-26T01:52:34.250Z,59.51
2022-09-26T01:55:11.447Z,59.50
2022-09-26T01:57:48.535Z,59.48
2022-09-26T02:00:21.154Z,59.49
2022-09-26T02:02:57.625Z,59.26
2022-09-26T02:05:32.943Z,58.55
2022-09-26T02:08:09.959Z,59.63
2022-09-26T02:10:46.374Z,59.96
2022-09-26T02:13:23.634Z,59.03
2022-09-26T02:16:01.494Z,58.05
2022-09-26T02:18:40.794Z,59.31
2022-09-26T02:21:17.715Z,59.59
2022-09-26T02:23:52.044Z,59.00
2022-09-26T02:26:24.701Z,59.19
2022-09-26T02:28:57.550Z,59.08
2022-09-26T02:31:35.687Z,59.16
2022-09-26T02:34:09.138Z,56.97
2022-09-26T02:36:41.831Z,56.09
2022-09-26T02:39:14.248Z,57.02
2022-09-26T02:42:29.771Z,55.88
2022-09-26T02:45:20.351Z,56.03
2022-09-26T02:48:20.047Z,55.89
2022-09-26T02:51:07.499Z,55.48
2022-09-26T02:54:14.090Z,56.17
2022-09-26T02:57:09.902Z,57.40
2022-09-26T02:59:52.688Z,58.42
2022-09-26T03:02:34.427Z,58.95
2022-09-26T03:05:23.343Z,59.05
2022-09-26T03:07:59.328Z,59.15
2022-09-26T03:10:35.219Z,59.01
2022-09-26T03:13:10.795Z,59.09
2022-09-26T03:15:48.427Z,57.98
2022-09-26T03:18:25.511Z,56.96
2022-09-26T03:20:57.963Z,54.38
2022-09-26T03:23:31.364Z,52.23
2022-09-26T03:26:11.332Z,54.17
2022-09-26T03:28:55.518Z,54.67
2022-09-26T03:31:29.047Z,53.58
2022-09-26T03:34:10.934Z,51.71
2022-09-26T03:36:45.251Z,52.69
2022-09-26T03:39:19.133Z,52.82
2022-09-26T03:41:57.518Z,52.26
2022-09-26T03:44:34.571Z,52.21
2022-09-26T03:47:09.969Z,52.53
2022-09-26T03:49:46.644Z,53.12
2022-09-26T03:52:19.071Z,53.20
2022-09-26T03:54:55.077Z,52.79
2022-09-26T03:57:27.452Z,53.54
2022-09-26T04:00:10.168Z,52.97
2022-09-26T04:02:52.362Z,52.17
2022-09-26T04:05:37.674Z,52.86
2022-09-26T04:08:10.044Z,52.50
2022-09-26T04:10:44.204Z,52.75
2022-09-26T04:13:39.691Z,52.06
2022-09-26T04:16:09.306Z,52.11
2022-09-26T04:18:41.842Z,52.72
2022-09-26T04:21:15.168Z,51.85
2022-09-26T04:23:48.875Z,51.67
2022-09-26T04:26:24.570Z,51.82
2022-09-26T04:28:58.387Z,52.70
2022-09-26T04:31:50.948Z,53.23
2022-09-26T04:34:27.477Z,53.54
2022-09-26T04:37:00.567Z,54.29
2022-09-26T04:39:35.262Z,54.26
2022-09-26T04:42:08.276Z,54.12
2022-09-26T04:44:41.132Z,54.40
2022-09-26T04:47:13.472Z,54.60
2022-09-26T04:50:15.063Z,54.27
2022-09-26T04:52:47.630Z,54.19
2022-09-26T04:55:20.111Z,54.04
2022-09-26T04:57:53.068Z,54.21
2022-09-26T05:00:26.167Z,54.51
2022-09-26T05:03:00.695Z,53.14
2022-09-26T05:05:33.093Z,53.78
2022-09-26T05:08:05.510Z,54.50
2022-09-26T05:10:37.837Z,54.41
2022-09-26T05:13:10.876Z,54.27
2022-09-26T05:15:43.122Z,53.86
2022-09-26T05:18:16.155Z,54.33
2022-09-26T05:20:50.172Z,54.58
2022-09-26T05:23:44.975Z,54.80
2022-09-26T05:26:22.751Z,54.40
2022-09-26T05:29:05.330Z,54.39
2022-09-26T05:31:49.649Z,54.52
2022-09-26T05:34:25.379Z,53.95
2022-09-26T05:36:59.420Z,52.07
2022-09-26T05:40:01.156Z,53.07
2022-09-26T05:42:35.579Z,54.01
2022-09-26T05:45:09.771Z,53.27
2022-09-26T05:47:42.058Z,52.54
2022-09-26T05:50:15.394Z,51.14
2022-09-26T05:52:47.688Z,51.69
2022-09-26T05:55:28.443Z,50.68
2022-09-26T05:58:19.606Z,49.15
2022-09-26T06:01:24.958Z,49.87
2022-09-26T06:04:06.163Z,48.45
2022-09-26T06:06:48.364Z,49.75
2022-09-26T06:09:22.843Z,48.78
2022-09-26T06:12:13.601Z,47.50
2022-09-26T06:14:46.067Z,47.77
2022-09-26T06:17:19.052Z,47.26
2022-09-26T06:19:51.424Z,46.24
2022-09-26T06:22:26.376Z,46.48
2022-09-26T06:24:59.143Z,46.20
2022-09-26T06:27:32.167Z,45.62
2022-09-26T06:30:06.585Z,45.80
2022-09-26T06:32:40.539Z,45.61
2022-09-26T06:35:25.922Z,45.41
2022-09-26T06:38:13.696Z,45.58
2022-09-26T06:40:46.646Z,45.92
2022-09-26T06:43:18.982Z,45.51
2022-09-26T06:46:09.770Z,44.67
2022-09-26T06:49:00.852Z,44.57
2022-09-26T06:51:51.202Z,43.63
2022-09-26T06:54:23.715Z,44.01
2022-09-26T06:56:56.259Z,43.97
2022-09-26T06:59:28.589Z,43.85
2022-09-26T07:02:16.285Z,43.94
2022-09-26T07:05:16.750Z,42.78
2022-09-26T07:07:57.783Z,42.95
2022-09-26T07:10:35.399Z,42.51
2022-09-26T07:13:10.295Z,42.29
2022-09-26T07:15:44.913Z,42.50
2022-09-26T07:18:31.064Z,41.95
2022-09-26T07:21:08.880Z,42.73
2022-09-26T07:24:01.823Z,42.55
2022-09-26T07:26:34.239Z,42.74
2022-09-26T07:29:08.197Z,41.88
2022-09-26T07:31:40.743Z,41.68
2022-09-26T07:34:24.299Z,41.74
2022-09-26T07:36:58.871Z,41.97
2022-09-26T07:39:31.165Z,42.90
2022-09-26T07:42:04.632Z,42.79
2022-09-26T07:47:50.617Z,43.74
2022-09-26T07:50:58.911Z,43.08
2022-09-26T07:53:48.555Z,42.63
2022-09-26T07:56:44.303Z,42.84
2022-09-26T07:59:43.838Z,42.53
2022-09-26T08:02:46.176Z,42.24
2022-09-26T08:05:20.232Z,42.21
2022-09-26T08:07:53.490Z,41.92
2022-09-26T08:10:45.988Z,42.21
2022-09-26T08:13:38.535Z,42.19
2022-09-26T08:16:11.659Z,42.14
2022-09-26T08:18:48.653Z,42.38
2022-09-26T08:21:22.262Z,42.07
2022-09-26T08:23:56.992Z,41.72
2022-09-26T08:26:50.252Z,41.24
2022-09-26T08:29:31.408Z,40.93
2022-09-26T08:32:04.547Z,41.21
2022-09-26T08:34:40.272Z,40.14
2022-09-26T08:37:31.470Z,40.93
2022-09-26T08:40:31.655Z,40.82
2022-09-26T08:43:47.203Z,41.27
2022-09-26T08:46:49.936Z,41.09
2022-09-26T08:49:59.231Z,40.85
2022-09-26T08:52:38.667Z,41.34
2022-09-26T08:55:15.813Z,41.48
2022-09-26T08:57:52.806Z,41.92
2022-09-26T09:00:30.411Z,41.96
2022-09-26T09:03:20.670Z,41.54
2022-09-26T09:05:59.003Z,41.55
2022-09-26T09:08:37.089Z,40.70
2022-09-26T09:11:50.701Z,40.56
2022-09-26T09:14:40.627Z,40.19
2022-09-26T09:17:41.905Z,40.88
2022-09-26T09:20:38.707Z,40.08
2022-09-26T09:23:50.158Z,40.41
2022-09-26T09:29:49.363Z,41.40
2022-09-26T09:32:48.754Z,41.77
2022-09-26T09:35:37.647Z,41.39
2022-09-26T09:38:22.540Z,42.34
2022-09-26T09:41:16.830Z,42.67
2022-09-26T09:43:53.755Z,43.18
2022-09-26T09:46:28.388Z,43.01
2022-09-26T09:49:17.211Z,43.37
2022-09-26T09:52:04.601Z,43.01
2022-09-26T09:54:48.280Z,42.97
2022-09-26T09:57:40.143Z,41.85
2022-09-26T10:00:16.673Z,41.42
2022-09-26T10:03:04.970Z,41.62
2022-09-26T10:05:44.556Z,41.24
2022-09-26T10:08:30.610Z,40.90
2022-09-26T10:11:23.400Z,40.66
2022-09-26T10:14:06.559Z,40.30
2022-09-26T10:17:17.422Z,40.53
2022-09-26T10:20:05.112Z,41.04
2022-09-26T10:22:44.775Z,40.87
2022-09-26T10:25:26.679Z,40.50
2022-09-26T10:28:04.032Z,41.25
2022-09-26T10:30:49.310Z,41.81
2022-09-26T10:33:26.931Z,42.16
2022-09-26T10:36:11.772Z,41.49
2022-09-26T10:39:14.800Z,41.77
2022-09-26T10:41:48.807Z,41.37
2022-09-26T10:44:23.855Z,41.49
2022-09-26T10:47:16.790Z,41.51
2022-09-26T10:50:11.799Z,40.83
2022-09-26T10:53:07.667Z,42.47
2022-09-26T10:55:47.854Z,41.37
2022-09-26T10:58:23.332Z,41.33
2022-09-26T11:01:00.451Z,41.44
2022-09-26T11:03:41.150Z,40.86
2022-09-26T11:06:33.305Z,40.63
2022-09-26T11:09:30.567Z,40.95
2022-09-26T11:12:24.547Z,40.85
2022-09-26T11:15:00.294Z,41.16
2022-09-26T11:17:44.599Z,40.84
2022-09-26T11:20:27.115Z,40.80
2022-09-26T11:23:07.123Z,40.41
2022-09-26T11:25:57.593Z,40.42
2022-09-26T11:28:35.503Z,40.76
2022-09-26T11:31:40.508Z,40.82
2022-09-26T11:34:35.934Z,40.50
2022-09-26T11:37:30.200Z,40.07
2022-09-26T11:40:29.909Z,40.22
2022-09-26T11:43:18.406Z,40.28
2022-09-26T11:46:14.442Z,40.20
2022-09-26T11:49:30.572Z,40.35
2022-09-26T11:52:37.127Z,39.84
2022-09-26T11:55:18.239Z,39.62
2022-09-26T11:58:03.706Z,40.24
2022-09-26T12:00:46.643Z,39.46
2022-09-26T12:03:39.347Z,39.93
2022-09-26T12:06:22.340Z,39.44
2022-09-26T12:09:11.571Z,39.96
2022-09-26T12:11:52.917Z,40.19
2022-09-26T12:14:41.182Z,40.34
2022-09-26T12:17:20.823Z,39.78
2022-09-26T12:20:03.621Z,39.59
2022-09-26T12:22:43.477Z,40.76
2022-09-26T12:25:35.378Z,41.32
2022-09-26T12:28:24.591Z,41.01
2022-09-26T12:31:08.933Z,41.03
2022-09-26T12:34:00.527Z,41.98
2022-09-26T12:36:47.100Z,41.18
2022-09-26T12:39:47.599Z,41.50
2022-09-26T12:42:33.508Z,41.98
2022-09-26T12:45:27.590Z,42.08
2022-09-26T12:48:19.041Z,41.66
2022-09-26T12:51:09.023Z,41.18
2022-09-26T12:54:07.536Z,40.73
2022-09-26T12:56:47.787Z,41.14
2022-09-26T12:59:38.703Z,41.84
2022-09-26T13:02:32.880Z,41.48
2022-09-26T13:05:37.815Z,42.28
2022-09-26T13:08:16.183Z,41.86
2022-09-26T13:11:04.617Z,41.77
2022-09-26T13:14:17.794Z,41.85
2022-09-26T13:17:05.523Z,42.49
2022-09-26T13:19:43.565Z,42.39
2022-09-26T13:22:26.670Z,42.45
2022-09-26T13:25:06.674Z,42.81
2022-09-26T13:27:43.798Z,42.63
2022-09-26T13:30:19.064Z,41.63
2022-09-26T13:33:00.156Z,42.61
2022-09-26T13:35:36.148Z,42.27
2022-09-26T13:38:28.992Z,42.02
2022-09-26T13:41:08.868Z,41.75
2022-09-26T13:43:53.608Z,42.03
2022-09-26T13:46:35.385Z,42.31
2022-09-26T13:49:33.293Z,42.14
2022-09-26T13:52:17.227Z,42.00
2022-09-26T13:55:01.184Z,41.94
2022-09-26T13:57:38.994Z,41.26
2022-09-26T14:00:48.263Z,41.65
2022-09-26T14:03:37.481Z,41.99
2022-09-26T14:06:28.510Z,41.32
2022-09-26T14:09:23.246Z,41.88
2022-09-26T14:12:30.509Z,41.93
2022-09-26T14:15:20.111Z,42.45
2022-09-26T14:18:14.693Z,42.77
2022-09-26T14:20:57.261Z,43.42
2022-09-26T14:23:41.149Z,43.33
2022-09-26T14:26:17.917Z,43.10
2022-09-26T14:28:53.408Z,43.40
2022-09-26T14:31:57.588Z,43.58
2022-09-26T14:34:37.113Z,43.29
2022-09-26T14:37:39.527Z,43.59
2022-09-26T14:40:33.058Z,43.79
2022-09-26T14:43:36.654Z,43.42
2022-09-26T14:46:17.903Z,43.38
2022-09-26T14:48:56.823Z,43.52
2022-09-26T14:51:32.143Z,43.40
2022-09-26T14:54:08.199Z,44.11
2022-09-26T14:56:44.603Z,43.68
2022-09-26T14:59:39.451Z,44.15
2022-09-26T15:02:25.198Z,44.25
2022-09-26T15:05:04.227Z,44.54
2022-09-26T15:07:43.623Z,44.30
2022-09-26T15:10:21.378Z,44.81
2022-09-26T15:13:00.718Z,45.27
2022-09-26T15:15:39.062Z,44.87
2022-09-26T15:18:17.389Z,45.52
2022-09-26T15:20:54.191Z,45.29
2022-09-26T15:23:30.711Z,45.36
2022-09-26T15:26:03.668Z,45.49
2022-09-26T15:28:38.223Z,45.94
2022-09-26T15:31:23.092Z,46.08
2022-09-26T15:34:00.338Z,45.93
2022-09-26T15:36:35.639Z,46.16
2022-09-26T15:39:37.658Z,45.85
2022-09-26T15:42:46.506Z,45.92
2022-09-26T15:45:29.285Z,46.00
2022-09-26T15:48:03.519Z,45.92
2022-09-26T15:50:41.082Z,45.96
2022-09-26T15:53:23.779Z,46.70
2022-09-26T15:56:01.498Z,46.86
2022-09-26T15:58:37.027Z,46.45
2022-09-26T16:01:14.762Z,47.09
2022-09-26T16:03:54.957Z,47.17
2022-09-26T16:06:31.371Z,47.37
2022-09-26T16:09:16.434Z,47.24
2022-09-26T16:11:52.703Z,47.45
2022-09-26T16:14:30.901Z,47.59
2022-09-26T16:17:13.221Z,47.84
2022-09-26T16:19:48.005Z,47.84
2022-09-26T16:22:28.739Z,47.90
2022-09-26T16:25:19.520Z,47.48
2022-09-26T16:27:59.411Z,47.76
2022-09-26T16:30:44.524Z,48.17
2022-09-26T16:33:28.102Z,48.74
2022-09-26T16:36:14.384Z,49.07
2022-09-26T16:38:55.592Z,49.25
2022-09-26T16:41:59.908Z,49.92
2022-09-26T16:44:35.370Z,49.91
2022-09-26T16:47:32.815Z,51.05
2022-09-26T16:50:26.373Z,51.13
2022-09-26T16:53:01.690Z,52.13
2022-09-26T16:55:35.658Z,52.42
2022-09-26T16:58:12.688Z,53.07
2022-09-26T17:01:03.985Z,52.98
2022-09-26T17:03:40.336Z,53.92
2022-09-26T17:06:12.712Z,54.27
2022-09-26T17:08:45.033Z,53.92
2022-09-26T17:11:17.482Z,54.81
2022-09-26T17:13:50.001Z,55.12
2022-09-26T17:16:23.203Z,55.03
2022-09-26T17:18:56.327Z,54.99
2022-09-26T17:21:28.683Z,55.02
2022-09-26T17:24:01.292Z,55.32
2022-09-26T17:26:35.418Z,55.43
2022-09-26T17:29:17.255Z,55.96
2022-09-26T17:31:51.452Z,55.39
2022-09-26T17:34:26.685Z,55.16
2022-09-26T17:36:59.095Z,55.15
2022-09-26T17:39:31.503Z,55.07
2022-09-26T17:42:04.047Z,55.17
2022-09-26T17:44:36.506Z,55.79
2022-09-26T17:47:10.966Z,55.93
2022-09-26T17:49:47.663Z,56.86
2022-09-26T17:52:24.432Z,57.17
2022-09-26T17:55:00.770Z,57.00
2022-09-26T17:57:35.337Z,57.28
2022-09-26T18:00:15.144Z,57.36
2022-09-26T18:02:52.196Z,57.92
2022-09-26T18:05:27.755Z,58.56
2022-09-26T18:08:05.948Z,59.21
2022-09-26T18:10:42.327Z,59.91
2022-09-26T18:13:19.575Z,61.70
2022-09-26T18:15:52.644Z,61.28
2022-09-26T18:18:28.608Z,62.49
2022-09-26T18:21:03.263Z,62.02
2022-09-26T18:23:41.693Z,62.78
2022-09-26T18:26:25.638Z,63.53
2022-09-26T18:29:01.685Z,65.26
2022-09-26T18:31:38.061Z,66.03
2022-09-26T18:34:13.143Z,66.77
2022-09-26T18:36:46.184Z,69.14
2022-09-26T18:39:18.530Z,71.09
2022-09-26T18:41:55.670Z,73.34
2022-09-26T18:44:29.598Z,74.59
2022-09-26T18:47:05.151Z,76.36
2022-09-26T18:49:38.286Z,76.52
2022-09-26T18:52:14.390Z,77.10
2022-09-26T18:55:06.827Z,78.47
2022-09-26T18:58:02.682Z,80.42
2022-09-26T19:00:35.568Z,81.28
2022-09-26T19:03:08.070Z,84.32
2022-09-26T19:05:41.262Z,85.00
2022-09-26T19:08:27.967Z,87.05
2022-09-26T19:11:03.589Z,88.55
2022-09-26T19:13:35.995Z,87.93
2022-09-26T19:16:09.242Z,87.46
2022-09-26T19:18:42.063Z,89.27
2022-09-26T19:21:22.814Z,89.91
2022-09-26T19:23:56.140Z,90.68
2022-09-26T19:26:32.532Z,92.15
2022-09-26T19:29:11.803Z,93.91
2022-09-26T19:31:44.254Z,94.30
2022-09-26T19:34:18.725Z,94.62
2022-09-26T19:36:51.939Z,94.50
2022-09-26T19:39:24.365Z,94.98
2022-09-26T19:41:56.733Z,94.95
2022-09-26T19:44:29.046Z,94.73
2022-09-26T19:47:03.173Z,94.21
2022-09-26T19:49:35.566Z,94.89
2022-09-26T19:52:14.887Z,95.65
2022-09-26T19:54:47.266Z,97.23
2022-09-26T19:57:21.627Z,96.60
2022-09-26T19:59:53.994Z,98.52
2022-09-26T20:02:32.343Z,97.84
2022-09-26T20:05:13.399Z,100.00
2022-09-26T20:07:46.617Z,99.41
2022-09-26T20:10:20.944Z,99.99
2022-09-26T20:12:53.503Z,100.00
2022-09-26T20:15:25.955Z,100.00
2022-09-26T20:17:59.599Z,100.00
2022-09-26T20:20:32.015Z,100.00
2022-09-26T20:23:12.801Z,99.99
2022-09-26T20:25:45.809Z,98.08
2022-09-26T20:28:18.380Z,99.06
2022-09-26T20:30:55.867Z,98.51
2022-09-26T20:33:28.414Z,98.64
2022-09-26T20:36:04.086Z,97.39
2022-09-26T20:38:39.858Z,98.08
2022-09-26T20:41:18.447Z,95.23
2022-09-26T20:43:56.166Z,95.46
2022-09-26T20:46:32.787Z,95.09
2022-09-26T20:49:07.956Z,95.49
2022-09-26T20:51:40.587Z,95.67
2022-09-26T20:54:24.533Z,95.46
2022-09-26T20:56:58.205Z,94.77
2022-09-26T20:59:34.211Z,95.29
2022-09-26T21:02:25.431Z,95.15
2022-09-26T21:04:59.474Z,94.91
2022-09-26T21:07:32.606Z,95.44
2022-09-26T21:10:21.163Z,96.20
2022-09-26T21:12:53.659Z,97.12
2022-09-26T21:15:28.830Z,96.21
2022-09-26T21:18:01.752Z,96.91
2022-09-26T21:20:34.532Z,97.56
2022-09-26T21:23:13.418Z,94.82
2022-09-26T21:25:46.536Z,97.10
2022-09-26T21:28:25.522Z,97.35
2022-09-26T21:31:01.850Z,96.89
2022-09-26T21:33:34.389Z,98.07
2022-09-26T21:36:08.632Z,99.06
2022-09-26T21:38:41.333Z,100.00
2022-09-26T21:41:14.632Z,97.39
2022-09-26T21:43:50.850Z,97.02
2022-09-26T21:46:24.493Z,97.64
2022-09-26T21:48:56.959Z,98.91
2022-09-26T21:51:30.123Z,99.67
2022-09-26T21:54:06.719Z,98.95
2022-09-26T21:56:49.362Z,100.00
2022-09-26T21:59:23.434Z,100.00
2022-09-26T22:01:55.852Z,100.00
2022-09-26T22:04:28.494Z,99.65
2022-09-26T22:07:01.236Z,100.00
2022-09-26T22:09:33.633Z,100.00
2022-09-26T22:12:06.703Z,99.08
2022-09-26T22:14:39.099Z,99.91
2022-09-26T22:17:11.839Z,99.18
2022-09-26T22:19:44.535Z,99.55
2022-09-26T22:22:17.412Z,98.37
2022-09-26T22:24:49.800Z,97.91
2022-09-26T22:27:22.925Z,97.74
2022-09-26T22:29:55.357Z,97.51
2022-09-26T22:32:27.726Z,97.32
2022-09-26T22:35:00.053Z,98.34
2022-09-26T22:37:32.408Z,96.36
2022-09-26T22:40:06.085Z,97.57
2022-09-26T22:42:39.091Z,97.95
2022-09-26T22:45:11.464Z,98.09
2022-09-26T22:47:43.820Z,100.00
2022-09-26T22:50:16.334Z,100.00
2022-09-26T22:52:48.687Z,100.00
2022-09-26T22:55:21.100Z,100.00
2022-09-26T22:57:54.135Z,100.00
2022-09-26T23:00:26.698Z,100.00
2022-09-26T23:02:59.067Z,100.00
2022-09-26T23:05:31.426Z,100.00
2022-09-26T23:08:04.802Z,100.00
2022-09-26T23:10:37.403Z,100.00
2022-09-26T23:13:10.526Z,100.00
2022-09-26T23:15:43.310Z,100.00
2022-09-26T23:18:15.733Z,100.00
2022-09-26T23:20:48.372Z,100.00
2022-09-26T23:23:20.743Z,100.00
2022-09-26T23:25:53.118Z,100.00
2022-09-26T23:28:26.260Z,100.00
2022-09-26T23:31:04.856Z,100.00
2022-09-26T23:33:37.722Z,100.00
2022-09-26T23:36:10.827Z,100.00
2022-09-26T23:38:44.431Z,100.00
2022-09-26T23:41:16.865Z,100.00
2022-09-26T23:43:49.940Z,100.00
2022-09-26T23:46:22.322Z,100.00
2022-09-26T23:48:54.789Z,100.00
2022-09-26T23:51:27.171Z,100.00
2022-09-26T23:53:59.766Z,100.00
2022-09-26T23:56:32.178Z,100.00
2022-09-26T23:59:05.220Z,100.00
